Polar Ranger — WDC8652 — position and weather

sailwx.info

Track history (hours):
 
Tides and Currents Weather Stations Pressure Air Temp Water Temp Dewpoint Dewpoint Depression Visibility Wind Speed Wind Dir Waves Ship Positions

Polar Ranger

More information available from US FCC via Universal Licensing System and Coast Guard Vessel Documentation Center.

Last reported at 2014-Jul-23 06:00 UTC. Time now 2014-Jul-23 16:05 UTC.
Position N 55°30' W 159°42'.

Type: Tow > 200 m length. MMSI: 367090860.

Wind from 230 at 14 knots

Waves 0.5 meters (2 feet), 1 second period

Barometer 1018.5 mb
Air temperature 11.7 ° C
Visibility: greater than 10.8 NM
Water temperature 12.5 ° C

Date/timePositionNaut miles runAvg speedWind from/ knotsBaromVisibWave heightAir tempDewpointWater temp
2014-Jul-23 06:00N 55°30' W 159°42'   230 / 141018.510.8 0.511.7 12.5
2014-Jul-14 06:20N 52°29' W 128°52'9 9.9
2014-Jul-14 05:25N 52°20' W 128°49'9 9.7
2014-Jul-14 04:27N 52°11' W 128°45'9 8.8
2014-Jul-14 03:28N 52°03' W 128°41'8 8.6
2014-Jul-14 02:33N 51°55' W 128°38'9 8.5
2014-Jul-14 01:33N 51°47' W 128°32'8 8.4
2014-Jul-14 00:33N 51°41' W 128°24'8 8.4
2014-Jul-13 23:33N 51°34' W 128°16'9 8.4
2014-Jul-13 22:32N 51°27' W 128°07'10 8.1
2014-Jul-13 21:20N 51°20' W 127°56'7 8.6
2014-Jul-13 20:34N 51°14' W 127°53'8 8.4
2014-Jul-13 19:33N 51°07' W 127°46'9 8.9
2014-Jul-13 18:33N 51°01' W 127°36'9 9.1
2014-Jul-13 17:34N 50°55' W 127°25'10 9.6
2014-Jul-13 16:33N 50°50' W 127°12'1110.1
2014-Jul-13 15:29N 50°44' W 126°58'9 9.3
2014-Jul-13 14:33N 50°38' W 126°47'1210.3
2014-Jul-13 13:24N 50°30' W 126°33'46 7.8
2014-Jul-13 07:33N 50°17' W 125°24'9 8.9
2014-Jul-13 06:33N 50°08' W 125°21'  
Track history (hours):
 
Tides and Currents Weather Stations Pressure Air Temp Water Temp Dewpoint Dewpoint Depression Visibility Wind Speed Wind Dir Waves Ship Positions

Polar Ranger

More information available from US FCC via Universal Licensing System and Coast Guard Vessel Documentation Center.

Last reported at 2014-Jul-23 06:00 UTC. Time now 2014-Jul-23 16:05 UTC.
Position N 55°30' W 159°42'.

Type: Tow > 200 m length. MMSI: 367090860.

Wind from 230 at 14 knots

Waves 0.5 meters (2 feet), 1 second period

Barometer 1018.5 mb
Air temperature 11.7 ° C
Visibility: greater than 10.8 NM
Water temperature 12.5 ° C

Date/timePositionNaut miles runAvg speedWind from/ knotsBaromVisibWave heightAir tempDewpointWater temp
2014-Jul-23 06:00N 55°30' W 159°42'   230 / 141018.510.8 0.511.7 12.5
2014-Jul-14 06:20N 52°29' W 128°52'9 9.9
2014-Jul-14 05:25N 52°20' W 128°49'9 9.7
2014-Jul-14 04:27N 52°11' W 128°45'9 8.8
2014-Jul-14 03:28N 52°03' W 128°41'8 8.6
2014-Jul-14 02:33N 51°55' W 128°38'9 8.5
2014-Jul-14 01:33N 51°47' W 128°32'8 8.4
2014-Jul-14 00:33N 51°41' W 128°24'8 8.4
2014-Jul-13 23:33N 51°34' W 128°16'9 8.4
2014-Jul-13 22:32N 51°27' W 128°07'10 8.1
2014-Jul-13 21:20N 51°20' W 127°56'7 8.6
2014-Jul-13 20:34N 51°14' W 127°53'8 8.4
2014-Jul-13 19:33N 51°07' W 127°46'9 8.9
2014-Jul-13 18:33N 51°01' W 127°36'9 9.1
2014-Jul-13 17:34N 50°55' W 127°25'10 9.6
2014-Jul-13 16:33N 50°50' W 127°12'1110.1
2014-Jul-13 15:29N 50°44' W 126°58'9 9.3
2014-Jul-13 14:33N 50°38' W 126°47'1210.3
2014-Jul-13 13:24N 50°30' W 126°33'46 7.8
2014-Jul-13 07:33N 50°17' W 125°24'9 8.9
2014-Jul-13 06:33N 50°08' W 125°21'  

Dump ship's entire track history